Zim Rio Grande — 9HNV9 — position and weather

sailwx.info

Track history (hours):
 
Tides and Currents Weather Stations Pressure Air Temp Water Temp Dewpoint Dewpoint Depression Visibility Wind Speed Wind Dir Waves Ship Positions

Zim Rio Grande

Last reported at 2015-May-19 17:19 UTC. Time now 2015-May-26 05:34 UTC.
Position N 01°55' E 102°21'.

Length 260 m; draft 10 m.

Type: Ship (hazmat cat A). MMSI: 249253000.

Date/timePositionNaut miles runAvg speedWind from/ knotsBaromVisibWave heightAir tempDewpointWater temp
2015-May-19 17:19N 01°55' E 102°21'1113.9
2015-May-19 16:33N 01°50' E 102°30'1414.0
2015-May-19 15:33N 01°45' E 102°43'1513.7
2015-May-19 14:29N 01°39' E 102°57'5813.1
2015-May-19 10:06N 01°10' E 103°47'814.7
2015-May-19 09:33N 01°13' E 103°54'1414.3
2015-May-19 08:33N 01°17' E 104°08'  
2015-May-15 18:33N 22°08' E 114°17'1413.8
2015-May-15 17:34N 22°17' E 114°06'1312.9
2015-May-15 16:33N 22°23' E 113°54'4 0.3
2015-May-15 03:20N 22°27' E 113°53'11 9.0
2015-May-15 02:07N 22°21' E 114°02'1610.5
2015-May-15 00:33N 22°09' E 114°14'1615.9
2015-May-14 23:33N 22°10' E 114°32'12617.0
2015-May-14 16:09N 22°53' E 116°40'1117.5
2015-May-14 15:32N 22°57' E 116°51'1817.4
2015-May-14 14:32N 23°05' E 117°08'5016.8
2015-May-14 11:33N 23°30' E 117°55'1616.3
2015-May-14 10:33N 23°38' E 118°10'1716.7
2015-May-14 09:33N 23°48' E 118°25'1616.2
2015-May-14 08:33N 23°57' E 118°39'2316.2
2015-May-14 07:09N 24°11' E 118°59'1516.6
2015-May-14 06:14N 24°21' E 119°12'1416.4
2015-May-14 05:23N 24°31' E 119°23'1715.8
2015-May-14 04:19N 24°41' E 119°37'32615.7
2015-May-13 07:33N 29°33' E 122°22'1414.4
2015-May-13 06:32N 29°46' E 122°17'1010.6
2015-May-13 05:33N 29°55' E 122°10'1313.1
2015-May-13 04:33N 29°58' E 121°55'4 1.4
2015-May-13 01:25N 29°57' E 121°50'0 0.0
2015-May-13 00:28N 29°57' E 121°50'0 0.0
2015-May-12 23:25N 29°57' E 121°50'0 0.0
2015-May-12 22:31N 29°57' E 121°50'0 0.0
2015-May-12 20:32N 29°57' E 121°50'0 0.0
2015-May-12 19:31N 29°57' E 121°50'3 3.4
2015-May-12 18:33N 29°58' E 121°53'1413.4
2015-May-12 17:33N 29°56' E 122°09'1212.3
2015-May-12 16:33N 29°46' E 122°18'8 8.4
2015-May-12 15:33N 29°45' E 122°27'3 2.9
2015-May-12 14:33N 29°45' E 122°31'1 1.0
2015-May-12 13:33N 29°44' E 122°30'5 4.7
2015-May-12 12:33N 29°45' E 122°35'7 7.3
2015-May-12 11:33N 29°46' E 122°43'7 7.1
2015-May-12 10:33N 29°49' E 122°51'7 6.8
2015-May-12 09:33N 29°52' E 122°57'10 9.9
2015-May-12 08:33N 29°57' E 123°08'12 8.9
2015-May-12 07:12N 30°08' E 123°13'73 9.5
2015-May-11 23:33N 31°06' E 122°22'1212.2
2015-May-11 22:33N 31°11' E 122°10'1514.6
2015-May-11 21:33N 31°16' E 121°53'1312.6
2015-May-11 20:33N 31°21' E 121°40'4 3.6
2015-May-11 19:31N 31°22' E 121°36'0 0.0
2015-May-11 18:31N 31°22' E 121°36'0 0.0
2015-May-11 17:31N 31°22' E 121°36'0 0.0
2015-May-11 16:31N 31°22' E 121°36'0 0.0
2015-May-11 15:31N 31°22' E 121°36'0 0.0
2015-May-11 14:28N 31°22' E 121°36'0 0.0
2015-May-11 13:31N 31°22' E 121°36'0 0.0
2015-May-11 12:31N 31°22' E 121°36'0 0.0
2015-May-11 11:31N 31°22' E 121°36'0 0.0
2015-May-11 10:31N 31°22' E 121°36'0 0.0
2015-May-11 09:31N 31°22' E 121°36'0 0.0
2015-May-11 08:31N 31°22' E 121°36'0 0.0
2015-May-11 07:31N 31°22' E 121°36'0 0.0
2015-May-11 06:31N 31°22' E 121°36'0 0.0
2015-May-11 05:28N 31°22' E 121°36'0 0.0
2015-May-11 04:31N 31°22' E 121°36'0 0.0
2015-May-11 03:31N 31°22' E 121°36'0 0.0
2015-May-11 02:31N 31°22' E 121°36'0 0.0
2015-May-11 01:31N 31°22' E 121°36'0 0.0
2015-May-11 00:33N 31°22' E 121°36'2 1.5
2015-May-10 23:33N 31°23' E 121°34'6 5.8
2015-May-10 22:33N 31°21' E 121°40'10 9.7
2015-May-10 21:33N 31°17' E 121°51'1312.8
2015-May-10 20:33N 31°14' E 122°05'1414.5
2015-May-10 19:33N 31°06' E 122°20'1610.6
2015-May-10 18:04N 31°07' E 122°38'  
Track history (hours):
 
Tides and Currents Weather Stations Pressure Air Temp Water Temp Dewpoint Dewpoint Depression Visibility Wind Speed Wind Dir Waves Ship Positions

Zim Rio Grande

Last reported at 2015-May-19 17:19 UTC. Time now 2015-May-26 05:34 UTC.
Position N 01°55' E 102°21'.

Length 260 m; draft 10 m.

Type: Ship (hazmat cat A). MMSI: 249253000.

Date/timePositionNaut miles runAvg speedWind from/ knotsBaromVisibWave heightAir tempDewpointWater temp
2015-May-19 17:19N 01°55' E 102°21'1113.9
2015-May-19 16:33N 01°50' E 102°30'1414.0
2015-May-19 15:33N 01°45' E 102°43'1513.7
2015-May-19 14:29N 01°39' E 102°57'5813.1
2015-May-19 10:06N 01°10' E 103°47'814.7
2015-May-19 09:33N 01°13' E 103°54'1414.3
2015-May-19 08:33N 01°17' E 104°08'  
2015-May-15 18:33N 22°08' E 114°17'1413.8
2015-May-15 17:34N 22°17' E 114°06'1312.9
2015-May-15 16:33N 22°23' E 113°54'4 0.3
2015-May-15 03:20N 22°27' E 113°53'11 9.0
2015-May-15 02:07N 22°21' E 114°02'1610.5
2015-May-15 00:33N 22°09' E 114°14'1615.9
2015-May-14 23:33N 22°10' E 114°32'12617.0
2015-May-14 16:09N 22°53' E 116°40'1117.5
2015-May-14 15:32N 22°57' E 116°51'1817.4
2015-May-14 14:32N 23°05' E 117°08'5016.8
2015-May-14 11:33N 23°30' E 117°55'1616.3
2015-May-14 10:33N 23°38' E 118°10'1716.7
2015-May-14 09:33N 23°48' E 118°25'1616.2
2015-May-14 08:33N 23°57' E 118°39'2316.2
2015-May-14 07:09N 24°11' E 118°59'1516.6
2015-May-14 06:14N 24°21' E 119°12'1416.4
2015-May-14 05:23N 24°31' E 119°23'1715.8
2015-May-14 04:19N 24°41' E 119°37'32615.7
2015-May-13 07:33N 29°33' E 122°22'1414.4
2015-May-13 06:32N 29°46' E 122°17'1010.6
2015-May-13 05:33N 29°55' E 122°10'1313.1
2015-May-13 04:33N 29°58' E 121°55'4 1.4
2015-May-13 01:25N 29°57' E 121°50'0 0.0
2015-May-13 00:28N 29°57' E 121°50'0 0.0
2015-May-12 23:25N 29°57' E 121°50'0 0.0
2015-May-12 22:31N 29°57' E 121°50'0 0.0
2015-May-12 20:32N 29°57' E 121°50'0 0.0
2015-May-12 19:31N 29°57' E 121°50'3 3.4
2015-May-12 18:33N 29°58' E 121°53'1413.4
2015-May-12 17:33N 29°56' E 122°09'1212.3
2015-May-12 16:33N 29°46' E 122°18'8 8.4
2015-May-12 15:33N 29°45' E 122°27'3 2.9
2015-May-12 14:33N 29°45' E 122°31'1 1.0
2015-May-12 13:33N 29°44' E 122°30'5 4.7
2015-May-12 12:33N 29°45' E 122°35'7 7.3
2015-May-12 11:33N 29°46' E 122°43'7 7.1
2015-May-12 10:33N 29°49' E 122°51'7 6.8
2015-May-12 09:33N 29°52' E 122°57'10 9.9
2015-May-12 08:33N 29°57' E 123°08'12 8.9
2015-May-12 07:12N 30°08' E 123°13'73 9.5
2015-May-11 23:33N 31°06' E 122°22'1212.2
2015-May-11 22:33N 31°11' E 122°10'1514.6
2015-May-11 21:33N 31°16' E 121°53'1312.6
2015-May-11 20:33N 31°21' E 121°40'4 3.6
2015-May-11 19:31N 31°22' E 121°36'0 0.0
2015-May-11 18:31N 31°22' E 121°36'0 0.0
2015-May-11 17:31N 31°22' E 121°36'0 0.0
2015-May-11 16:31N 31°22' E 121°36'0 0.0
2015-May-11 15:31N 31°22' E 121°36'0 0.0
2015-May-11 14:28N 31°22' E 121°36'0 0.0
2015-May-11 13:31N 31°22' E 121°36'0 0.0
2015-May-11 12:31N 31°22' E 121°36'0 0.0
2015-May-11 11:31N 31°22' E 121°36'0 0.0
2015-May-11 10:31N 31°22' E 121°36'0 0.0
2015-May-11 09:31N 31°22' E 121°36'0 0.0
2015-May-11 08:31N 31°22' E 121°36'0 0.0
2015-May-11 07:31N 31°22' E 121°36'0 0.0
2015-May-11 06:31N 31°22' E 121°36'0 0.0
2015-May-11 05:28N 31°22' E 121°36'0 0.0
2015-May-11 04:31N 31°22' E 121°36'0 0.0
2015-May-11 03:31N 31°22' E 121°36'0 0.0
2015-May-11 02:31N 31°22' E 121°36'0 0.0
2015-May-11 01:31N 31°22' E 121°36'0 0.0
2015-May-11 00:33N 31°22' E 121°36'2 1.5
2015-May-10 23:33N 31°23' E 121°34'6 5.8
2015-May-10 22:33N 31°21' E 121°40'10 9.7
2015-May-10 21:33N 31°17' E 121°51'1312.8
2015-May-10 20:33N 31°14' E 122°05'1414.5
2015-May-10 19:33N 31°06' E 122°20'1610.6
2015-May-10 18:04N 31°07' E 122°38'  

Dump ship's entire track history